sensor_id;sensor_type;location;lat;lon;timestamp;P1;durP1;ratioP1;P2;durP2;ratioP2
65835;SDS011;52595;51.608;7.216;2023-03-14T00:00:33;9.88;;;1.80;;
65835;SDS011;52595;51.608;7.216;2023-03-14T00:02:59;8.20;;;1.70;;
65835;SDS011;52595;51.608;7.216;2023-03-14T00:05:24;4.55;;;1.33;;
65835;SDS011;52595;51.608;7.216;2023-03-14T00:07:50;7.57;;;1.85;;
65835;SDS011;52595;51.608;7.216;2023-03-14T00:10:15;6.25;;;1.70;;
65835;SDS011;52595;51.608;7.216;2023-03-14T00:12:41;4.00;;;1.40;;
65835;SDS011;52595;51.608;7.216;2023-03-14T00:15:07;7.35;;;1.55;;
65835;SDS011;52595;51.608;7.216;2023-03-14T00:17:34;6.47;;;1.90;;
65835;SDS011;52595;51.608;7.216;2023-03-14T00:20:01;6.45;;;1.70;;
65835;SDS011;52595;51.608;7.216;2023-03-14T00:22:36;3.65;;;1.33;;
65835;SDS011;52595;51.608;7.216;2023-03-14T00:25:03;3.35;;;1.25;;
65835;SDS011;52595;51.608;7.216;2023-03-14T00:27:30;8.05;;;1.75;;
65835;SDS011;52595;51.608;7.216;2023-03-14T00:29:56;5.40;;;1.30;;
65835;SDS011;52595;51.608;7.216;2023-03-14T00:32:21;4.35;;;1.40;;
65835;SDS011;52595;51.608;7.216;2023-03-14T00:34:47;7.82;;;1.77;;
65835;SDS011;52595;51.608;7.216;2023-03-14T00:37:12;3.70;;;1.58;;
65835;SDS011;52595;51.608;7.216;2023-03-14T00:39:38;3.83;;;1.45;;
65835;SDS011;52595;51.608;7.216;2023-03-14T00:42:03;6.30;;;1.63;;
65835;SDS011;52595;51.608;7.216;2023-03-14T00:44:29;7.97;;;1.80;;
65835;SDS011;52595;51.608;7.216;2023-03-14T00:46:54;8.15;;;1.80;;
65835;SDS011;52595;51.608;7.216;2023-03-14T00:49:20;3.58;;;1.45;;
65835;SDS011;52595;51.608;7.216;2023-03-14T00:51:45;6.95;;;1.70;;
65835;SDS011;52595;51.608;7.216;2023-03-14T00:54:10;6.40;;;1.45;;
65835;SDS011;52595;51.608;7.216;2023-03-14T00:56:36;2.88;;;1.27;;
65835;SDS011;52595;51.608;7.216;2023-03-14T00:59:01;7.13;;;1.70;;
65835;SDS011;52595;51.608;7.216;2023-03-14T01:01:26;8.93;;;1.60;;
65835;SDS011;52595;51.608;7.216;2023-03-14T01:03:52;6.22;;;1.65;;
65835;SDS011;52595;51.608;7.216;2023-03-14T01:06:20;7.43;;;1.88;;
65835;SDS011;52595;51.608;7.216;2023-03-14T01:08:48;5.43;;;1.73;;
65835;SDS011;52595;51.608;7.216;2023-03-14T01:11:15;2.67;;;1.10;;
65835;SDS011;52595;51.608;7.216;2023-03-14T01:13:43;9.50;;;1.20;;
65835;SDS011;52595;51.608;7.216;2023-03-14T01:16:09;6.68;;;1.30;;
65835;SDS011;52595;51.608;7.216;2023-03-14T01:18:36;8.57;;;1.88;;
65835;SDS011;52595;51.608;7.216;2023-03-14T01:21:14;5.75;;;1.60;;
65835;SDS011;52595;51.608;7.216;2023-03-14T01:23:42;7.22;;;1.48;;
65835;SDS011;52595;51.608;7.216;2023-03-14T01:26:08;4.30;;;1.23;;
65835;SDS011;52595;51.608;7.216;2023-03-14T01:28:35;5.47;;;1.55;;
65835;SDS011;52595;51.608;7.216;2023-03-14T01:31:08;7.70;;;1.40;;
65835;SDS011;52595;51.608;7.216;2023-03-14T01:33:35;4.90;;;1.20;;
65835;SDS011;52595;51.608;7.216;2023-03-14T01:36:01;2.33;;;1.10;;
65835;SDS011;52595;51.608;7.216;2023-03-14T01:38:31;4.60;;;1.15;;
65835;SDS011;52595;51.608;7.216;2023-03-14T01:40:58;4.90;;;1.17;;
65835;SDS011;52595;51.608;7.216;2023-03-14T01:43:23;3.30;;;0.80;;
65835;SDS011;52595;51.608;7.216;2023-03-14T01:46:16;4.13;;;1.27;;
65835;SDS011;52595;51.608;7.216;2023-03-14T01:48:54;2.67;;;1.00;;
65835;SDS011;52595;51.608;7.216;2023-03-14T01:53:58;2.88;;;1.00;;
65835;SDS011;52595;51.608;7.216;2023-03-14T01:56:29;5.25;;;1.50;;
65835;SDS011;52595;51.608;7.216;2023-03-14T01:58:55;3.38;;;1.00;;
65835;SDS011;52595;51.608;7.216;2023-03-14T02:01:21;5.55;;;0.90;;
65835;SDS011;52595;51.608;7.216;2023-03-14T02:03:52;4.22;;;1.20;;
65835;SDS011;52595;51.608;7.216;2023-03-14T02:06:21;3.20;;;1.15;;
65835;SDS011;52595;51.608;7.216;2023-03-14T02:08:49;4.80;;;1.17;;
65835;SDS011;52595;51.608;7.216;2023-03-14T02:11:16;2.22;;;1.10;;
65835;SDS011;52595;51.608;7.216;2023-03-14T02:13:42;3.70;;;1.15;;
65835;SDS011;52595;51.608;7.216;2023-03-14T02:16:08;7.85;;;1.58;;
65835;SDS011;52595;51.608;7.216;2023-03-14T02:18:34;5.93;;;1.30;;
65835;SDS011;52595;51.608;7.216;2023-03-14T02:21:09;3.92;;;0.93;;
65835;SDS011;52595;51.608;7.216;2023-03-14T02:26:41;4.07;;;1.10;;
65835;SDS011;52595;51.608;7.216;2023-03-14T02:31:37;5.05;;;1.05;;
65835;SDS011;52595;51.608;7.216;2023-03-14T02:34:03;9.10;;;1.50;;
65835;SDS011;52595;51.608;7.216;2023-03-14T02:36:29;7.22;;;1.35;;
65835;SDS011;52595;51.608;7.216;2023-03-14T02:39:11;6.25;;;1.05;;
65835;SDS011;52595;51.608;7.216;2023-03-14T02:41:41;5.97;;;1.33;;
65835;SDS011;52595;51.608;7.216;2023-03-14T02:44:07;6.28;;;1.00;;
65835;SDS011;52595;51.608;7.216;2023-03-14T02:46:33;3.85;;;1.23;;
65835;SDS011;52595;51.608;7.216;2023-03-14T02:49:07;5.22;;;1.30;;
65835;SDS011;52595;51.608;7.216;2023-03-14T02:51:35;3.00;;;1.10;;
65835;SDS011;52595;51.608;7.216;2023-03-14T02:54:01;1.88;;;0.80;;
65835;SDS011;52595;51.608;7.216;2023-03-14T02:56:27;3.20;;;1.42;;
65835;SDS011;52595;51.608;7.216;2023-03-14T02:58:52;3.83;;;1.15;;
65835;SDS011;52595;51.608;7.216;2023-03-14T03:01:17;4.45;;;1.30;;
65835;SDS011;52595;51.608;7.216;2023-03-14T03:03:43;3.83;;;1.52;;
65835;SDS011;52595;51.608;7.216;2023-03-14T03:06:08;2.55;;;0.70;;
65835;SDS011;52595;51.608;7.216;2023-03-14T03:08:34;3.50;;;0.90;;
65835;SDS011;52595;51.608;7.216;2023-03-14T03:10:59;9.15;;;1.30;;
65835;SDS011;52595;51.608;7.216;2023-03-14T03:13:25;4.40;;;1.50;;
65835;SDS011;52595;51.608;7.216;2023-03-14T03:15:51;4.63;;;0.98;;
65835;SDS011;52595;51.608;7.216;2023-03-14T03:18:17;5.25;;;1.45;;
65835;SDS011;52595;51.608;7.216;2023-03-14T03:20:42;3.20;;;1.35;;
65835;SDS011;52595;51.608;7.216;2023-03-14T03:23:08;3.13;;;1.27;;
65835;SDS011;52595;51.608;7.216;2023-03-14T03:25:33;8.00;;;1.67;;
65835;SDS011;52595;51.608;7.216;2023-03-14T03:27:59;4.18;;;1.08;;
65835;SDS011;52595;51.608;7.216;2023-03-14T03:30:24;7.50;;;1.55;;
65835;SDS011;52595;51.608;7.216;2023-03-14T03:32:50;5.60;;;1.35;;
65835;SDS011;52595;51.608;7.216;2023-03-14T03:35:15;5.93;;;1.85;;
65835;SDS011;52595;51.608;7.216;2023-03-14T03:37:41;5.03;;;1.15;;
65835;SDS011;52595;51.608;7.216;2023-03-14T03:40:06;5.90;;;1.50;;
65835;SDS011;52595;51.608;7.216;2023-03-14T03:42:34;6.47;;;1.55;;
65835;SDS011;52595;51.608;7.216;2023-03-14T03:45:00;6.05;;;2.05;;
65835;SDS011;52595;51.608;7.216;2023-03-14T03:47:27;6.35;;;1.27;;
65835;SDS011;52595;51.608;7.216;2023-03-14T03:49:52;6.10;;;1.30;;
65835;SDS011;52595;51.608;7.216;2023-03-14T03:52:18;7.05;;;1.48;;
65835;SDS011;52595;51.608;7.216;2023-03-14T03:54:44;6.45;;;1.15;;
65835;SDS011;52595;51.608;7.216;2023-03-14T03:57:09;4.57;;;1.30;;
65835;SDS011;52595;51.608;7.216;2023-03-14T03:59:34;5.03;;;1.30;;
65835;SDS011;52595;51.608;7.216;2023-03-14T04:02:00;5.03;;;1.88;;
65835;SDS011;52595;51.608;7.216;2023-03-14T04:04:25;6.75;;;1.50;;
65835;SDS011;52595;51.608;7.216;2023-03-14T04:06:51;4.57;;;1.17;;
65835;SDS011;52595;51.608;7.216;2023-03-14T04:09:16;5.85;;;1.35;;
65835;SDS011;52595;51.608;7.216;2023-03-14T04:11:42;8.05;;;1.45;;
65835;SDS011;52595;51.608;7.216;2023-03-14T04:14:07;4.43;;;1.25;;
65835;SDS011;52595;51.608;7.216;2023-03-14T04:16:33;2.30;;;1.08;;
65835;SDS011;52595;51.608;7.216;2023-03-14T04:18:59;5.97;;;1.30;;
65835;SDS011;52595;51.608;7.216;2023-03-14T04:21:25;5.40;;;1.30;;
65835;SDS011;52595;51.608;7.216;2023-03-14T04:23:50;4.07;;;1.33;;
65835;SDS011;52595;51.608;7.216;2023-03-14T04:26:16;4.00;;;1.45;;
65835;SDS011;52595;51.608;7.216;2023-03-14T04:28:41;8.55;;;1.85;;
65835;SDS011;52595;51.608;7.216;2023-03-14T04:31:08;4.60;;;1.50;;
65835;SDS011;52595;51.608;7.216;2023-03-14T04:33:34;5.55;;;1.75;;
65835;SDS011;52595;51.608;7.216;2023-03-14T04:36:01;5.82;;;1.52;;
65835;SDS011;52595;51.608;7.216;2023-03-14T04:38:26;4.57;;;1.48;;
65835;SDS011;52595;51.608;7.216;2023-03-14T04:40:51;7.40;;;1.63;;
65835;SDS011;52595;51.608;7.216;2023-03-14T04:43:17;4.72;;;1.55;;
65835;SDS011;52595;51.608;7.216;2023-03-14T04:45:42;5.22;;;1.73;;
65835;SDS011;52595;51.608;7.216;2023-03-14T04:48:08;2.92;;;1.17;;
65835;SDS011;52595;51.608;7.216;2023-03-14T04:50:34;1.67;;;1.13;;
65835;SDS011;52595;51.608;7.216;2023-03-14T04:52:59;1.75;;;0.65;;
65835;SDS011;52595;51.608;7.216;2023-03-14T04:55:24;2.92;;;0.93;;
65835;SDS011;52595;51.608;7.216;2023-03-14T04:57:50;2.97;;;1.00;;
65835;SDS011;52595;51.608;7.216;2023-03-14T05:00:15;3.08;;;1.02;;
65835;SDS011;52595;51.608;7.216;2023-03-14T05:02:43;2.22;;;0.70;;
65835;SDS011;52595;51.608;7.216;2023-03-14T05:05:09;4.32;;;0.90;;
65835;SDS011;52595;51.608;7.216;2023-03-14T05:07:34;1.45;;;0.98;;
65835;SDS011;52595;51.608;7.216;2023-03-14T05:10:00;1.85;;;0.60;;
65835;SDS011;52595;51.608;7.216;2023-03-14T05:12:25;1.20;;;0.80;;
65835;SDS011;52595;51.608;7.216;2023-03-14T05:14:51;6.20;;;0.60;;
65835;SDS011;52595;51.608;7.216;2023-03-14T05:17:16;1.40;;;0.90;;
65835;SDS011;52595;51.608;7.216;2023-03-14T05:19:42;3.22;;;0.77;;
65835;SDS011;52595;51.608;7.216;2023-03-14T05:22:08;3.85;;;1.00;;
65835;SDS011;52595;51.608;7.216;2023-03-14T05:24:33;3.53;;;0.65;;
65835;SDS011;52595;51.608;7.216;2023-03-14T05:26:59;3.58;;;0.77;;
65835;SDS011;52595;51.608;7.216;2023-03-14T05:29:24;2.15;;;0.98;;
65835;SDS011;52595;51.608;7.216;2023-03-14T05:31:49;5.50;;;1.15;;
65835;SDS011;52595;51.608;7.216;2023-03-14T05:34:20;1.98;;;1.20;;
65835;SDS011;52595;51.608;7.216;2023-03-14T05:36:55;5.53;;;2.50;;
65835;SDS011;52595;51.608;7.216;2023-03-14T05:39:36;3.53;;;1.45;;
65835;SDS011;52595;51.608;7.216;2023-03-14T05:42:01;3.13;;;1.00;;
65835;SDS011;52595;51.608;7.216;2023-03-14T05:44:26;1.65;;;0.95;;
65835;SDS011;52595;51.608;7.216;2023-03-14T05:46:52;1.67;;;1.00;;
65835;SDS011;52595;51.608;7.216;2023-03-14T05:49:17;3.10;;;1.27;;
65835;SDS011;52595;51.608;7.216;2023-03-14T05:51:43;4.07;;;1.20;;
65835;SDS011;52595;51.608;7.216;2023-03-14T05:54:08;4.00;;;1.10;;
65835;SDS011;52595;51.608;7.216;2023-03-14T05:56:34;6.68;;;1.30;;
65835;SDS011;52595;51.608;7.216;2023-03-14T05:58:59;2.85;;;1.10;;
65835;SDS011;52595;51.608;7.216;2023-03-14T06:01:27;2.15;;;1.00;;
65835;SDS011;52595;51.608;7.216;2023-03-14T06:03:52;2.88;;;1.30;;
65835;SDS011;52595;51.608;7.216;2023-03-14T06:06:18;4.97;;;1.30;;
65835;SDS011;52595;51.608;7.216;2023-03-14T06:08:43;2.97;;;1.30;;
65835;SDS011;52595;51.608;7.216;2023-03-14T06:11:08;1.88;;;1.38;;
65835;SDS011;52595;51.608;7.216;2023-03-14T06:13:34;3.58;;;1.40;;
65835;SDS011;52595;51.608;7.216;2023-03-14T06:16:00;4.10;;;1.67;;
65835;SDS011;52595;51.608;7.216;2023-03-14T06:18:25;5.13;;;1.80;;
65835;SDS011;52595;51.608;7.216;2023-03-14T06:20:53;4.03;;;1.80;;
65835;SDS011;52595;51.608;7.216;2023-03-14T06:23:19;4.65;;;2.10;;
65835;SDS011;52595;51.608;7.216;2023-03-14T06:25:44;7.60;;;2.80;;
65835;SDS011;52595;51.608;7.216;2023-03-14T06:28:10;6.93;;;3.10;;
65835;SDS011;52595;51.608;7.216;2023-03-14T06:30:35;5.90;;;3.00;;
65835;SDS011;52595;51.608;7.216;2023-03-14T06:33:00;5.03;;;2.80;;
65835;SDS011;52595;51.608;7.216;2023-03-14T06:35:26;8.90;;;3.20;;
65835;SDS011;52595;51.608;7.216;2023-03-14T06:37:51;7.25;;;2.90;;
65835;SDS011;52595;51.608;7.216;2023-03-14T06:40:17;10.50;;;3.58;;
65835;SDS011;52595;51.608;7.216;2023-03-14T06:42:43;7.30;;;3.25;;
65835;SDS011;52595;51.608;7.216;2023-03-14T06:45:09;8.95;;;3.65;;
65835;SDS011;52595;51.608;7.216;2023-03-14T06:47:35;6.63;;;3.03;;
65835;SDS011;52595;51.608;7.216;2023-03-14T06:50:00;9.10;;;3.42;;
65835;SDS011;52595;51.608;7.216;2023-03-14T06:52:26;8.15;;;3.42;;
65835;SDS011;52595;51.608;7.216;2023-03-14T06:54:51;14.20;;;3.40;;
65835;SDS011;52595;51.608;7.216;2023-03-14T06:57:16;8.50;;;3.10;;
65835;SDS011;52595;51.608;7.216;2023-03-14T06:59:42;5.85;;;2.85;;
65835;SDS011;52595;51.608;7.216;2023-03-14T07:02:11;6.78;;;2.65;;
65835;SDS011;52595;51.608;7.216;2023-03-14T07:04:37;6.80;;;2.33;;
65835;SDS011;52595;51.608;7.216;2023-03-14T07:07:03;9.05;;;3.38;;
65835;SDS011;52595;51.608;7.216;2023-03-14T07:09:28;5.28;;;2.55;;
65835;SDS011;52595;51.608;7.216;2023-03-14T07:11:54;4.70;;;2.20;;
65835;SDS011;52595;51.608;7.216;2023-03-14T07:14:19;4.10;;;2.15;;
65835;SDS011;52595;51.608;7.216;2023-03-14T07:16:45;4.38;;;2.30;;
65835;SDS011;52595;51.608;7.216;2023-03-14T07:19:10;8.95;;;3.03;;
65835;SDS011;52595;51.608;7.216;2023-03-14T07:21:35;4.80;;;2.20;;
65835;SDS011;52595;51.608;7.216;2023-03-14T07:24:01;4.57;;;1.40;;
65835;SDS011;52595;51.608;7.216;2023-03-14T07:26:27;3.55;;;1.75;;
65835;SDS011;52595;51.608;7.216;2023-03-14T07:28:52;4.90;;;1.83;;
65835;SDS011;52595;51.608;7.216;2023-03-14T07:31:17;3.50;;;1.63;;
65835;SDS011;52595;51.608;7.216;2023-03-14T07:33:43;2.55;;;1.50;;
65835;SDS011;52595;51.608;7.216;2023-03-14T07:36:08;1.98;;;1.50;;
65835;SDS011;52595;51.608;7.216;2023-03-14T07:38:34;2.38;;;1.50;;
65835;SDS011;52595;51.608;7.216;2023-03-14T07:41:00;1.02;;;0.93;;
65835;SDS011;52595;51.608;7.216;2023-03-14T07:43:26;2.60;;;1.20;;
65835;SDS011;52595;51.608;7.216;2023-03-14T07:45:52;2.78;;;1.45;;
65835;SDS011;52595;51.608;7.216;2023-03-14T07:48:17;3.33;;;1.48;;
65835;SDS011;52595;51.608;7.216;2023-03-14T07:50:43;3.30;;;1.70;;
65835;SDS011;52595;51.608;7.216;2023-03-14T07:53:09;4.30;;;1.73;;
65835;SDS011;52595;51.608;7.216;2023-03-14T07:55:34;1.85;;;1.33;;
65835;SDS011;52595;51.608;7.216;2023-03-14T07:57:59;3.33;;;1.80;;
65835;SDS011;52595;51.608;7.216;2023-03-14T08:00:25;2.05;;;1.27;;
65835;SDS011;52595;51.608;7.216;2023-03-14T08:02:50;3.25;;;1.70;;
65835;SDS011;52595;51.608;7.216;2023-03-14T08:05:16;1.95;;;1.25;;
65835;SDS011;52595;51.608;7.216;2023-03-14T08:07:41;1.65;;;1.27;;
65835;SDS011;52595;51.608;7.216;2023-03-14T08:10:07;2.75;;;1.65;;
65835;SDS011;52595;51.608;7.216;2023-03-14T08:12:33;2.10;;;1.58;;
65835;SDS011;52595;51.608;7.216;2023-03-14T08:14:58;5.30;;;1.70;;
65835;SDS011;52595;51.608;7.216;2023-03-14T08:17:24;2.00;;;1.63;;
65835;SDS011;52595;51.608;7.216;2023-03-14T08:19:50;2.72;;;1.55;;
65835;SDS011;52595;51.608;7.216;2023-03-14T08:22:15;3.00;;;1.80;;
65835;SDS011;52595;51.608;7.216;2023-03-14T08:24:40;3.13;;;1.48;;
65835;SDS011;52595;51.608;7.216;2023-03-14T08:27:06;3.55;;;1.67;;
65835;SDS011;52595;51.608;7.216;2023-03-14T08:29:31;2.70;;;2.00;;
65835;SDS011;52595;51.608;7.216;2023-03-14T08:31:57;4.65;;;1.80;;
65835;SDS011;52595;51.608;7.216;2023-03-14T08:34:22;5.22;;;2.80;;
65835;SDS011;52595;51.608;7.216;2023-03-14T08:36:47;4.50;;;2.92;;
65835;SDS011;52595;51.608;7.216;2023-03-14T08:39:13;7.40;;;3.47;;
65835;SDS011;52595;51.608;7.216;2023-03-14T08:41:38;5.43;;;3.20;;
65835;SDS011;52595;51.608;7.216;2023-03-14T08:44:09;5.20;;;3.10;;
65835;SDS011;52595;51.608;7.216;2023-03-14T08:46:36;6.70;;;3.88;;
65835;SDS011;52595;51.608;7.216;2023-03-14T08:49:02;6.72;;;3.78;;
65835;SDS011;52595;51.608;7.216;2023-03-14T08:51:28;9.73;;;3.40;;
65835;SDS011;52595;51.608;7.216;2023-03-14T08:53:53;6.80;;;3.70;;
65835;SDS011;52595;51.608;7.216;2023-03-14T08:56:19;4.78;;;3.03;;
65835;SDS011;52595;51.608;7.216;2023-03-14T08:58:44;6.50;;;4.20;;
65835;SDS011;52595;51.608;7.216;2023-03-14T09:01:10;6.03;;;4.07;;
65835;SDS011;52595;51.608;7.216;2023-03-14T09:03:36;5.50;;;3.50;;
65835;SDS011;52595;51.608;7.216;2023-03-14T09:06:05;5.93;;;3.83;;
65835;SDS011;52595;51.608;7.216;2023-03-14T09:08:32;6.65;;;4.20;;
65835;SDS011;52595;51.608;7.216;2023-03-14T09:10:58;7.32;;;4.07;;
65835;SDS011;52595;51.608;7.216;2023-03-14T09:13:24;7.25;;;4.47;;
65835;SDS011;52595;51.608;7.216;2023-03-14T09:15:50;6.63;;;4.43;;
65835;SDS011;52595;51.608;7.216;2023-03-14T09:18:16;7.57;;;4.65;;
65835;SDS011;52595;51.608;7.216;2023-03-14T09:20:41;7.72;;;5.00;;
65835;SDS011;52595;51.608;7.216;2023-03-14T09:23:07;10.02;;;6.15;;
65835;SDS011;52595;51.608;7.216;2023-03-14T09:25:32;10.50;;;6.43;;
65835;SDS011;52595;51.608;7.216;2023-03-14T09:27:58;11.95;;;7.45;;
65835;SDS011;52595;51.608;7.216;2023-03-14T09:30:23;9.52;;;6.05;;
65835;SDS011;52595;51.608;7.216;2023-03-14T09:32:48;3.88;;;1.80;;
65835;SDS011;52595;51.608;7.216;2023-03-14T09:35:14;1.33;;;1.08;;
65835;SDS011;52595;51.608;7.216;2023-03-14T09:37:39;1.52;;;1.00;;
65835;SDS011;52595;51.608;7.216;2023-03-14T09:40:05;3.75;;;1.10;;
65835;SDS011;52595;51.608;7.216;2023-03-14T09:42:35;1.38;;;1.10;;
65835;SDS011;52595;51.608;7.216;2023-03-14T09:45:04;1.95;;;0.88;;
65835;SDS011;52595;51.608;7.216;2023-03-14T09:47:32;1.65;;;1.10;;
65835;SDS011;52595;51.608;7.216;2023-03-14T09:49:59;2.38;;;1.30;;
65835;SDS011;52595;51.608;7.216;2023-03-14T09:52:27;1.58;;;1.00;;
65835;SDS011;52595;51.608;7.216;2023-03-14T09:55:00;1.67;;;0.98;;
65835;SDS011;52595;51.608;7.216;2023-03-14T09:57:32;1.10;;;0.90;;
65835;SDS011;52595;51.608;7.216;2023-03-14T10:00:02;2.80;;;1.27;;
65835;SDS011;52595;51.608;7.216;2023-03-14T10:02:38;3.65;;;1.23;;
65835;SDS011;52595;51.608;7.216;2023-03-14T10:05:17;2.47;;;1.33;;
65835;SDS011;52595;51.608;7.216;2023-03-14T10:07:44;1.83;;;1.50;;
65835;SDS011;52595;51.608;7.216;2023-03-14T10:10:10;2.08;;;1.50;;
65835;SDS011;52595;51.608;7.216;2023-03-14T10:12:38;2.08;;;1.30;;
65835;SDS011;52595;51.608;7.216;2023-03-14T10:15:05;1.80;;;1.00;;
65835;SDS011;52595;51.608;7.216;2023-03-14T10:17:43;1.13;;;0.88;;
65835;SDS011;52595;51.608;7.216;2023-03-14T10:25:38;1.30;;;0.88;;
65835;SDS011;52595;51.608;7.216;2023-03-14T10:28:11;1.77;;;1.08;;
65835;SDS011;52595;51.608;7.216;2023-03-14T10:30:50;2.78;;;1.17;;
65835;SDS011;52595;51.608;7.216;2023-03-14T10:35:56;1.35;;;1.10;;
65835;SDS011;52595;51.608;7.216;2023-03-14T10:38:26;1.70;;;1.17;;
65835;SDS011;52595;51.608;7.216;2023-03-14T10:40:53;2.22;;;1.40;;
65835;SDS011;52595;51.608;7.216;2023-03-14T10:43:34;1.10;;;1.00;;
65835;SDS011;52595;51.608;7.216;2023-03-14T10:46:02;4.32;;;0.80;;
65835;SDS011;52595;51.608;7.216;2023-03-14T10:48:34;1.10;;;0.90;;
65835;SDS011;52595;51.608;7.216;2023-03-14T10:51:10;1.95;;;1.38;;
65835;SDS011;52595;51.608;7.216;2023-03-14T10:53:46;2.13;;;1.40;;
65835;SDS011;52595;51.608;7.216;2023-03-14T10:56:20;3.08;;;1.67;;
65835;SDS011;52595;51.608;7.216;2023-03-14T10:58:48;2.33;;;1.60;;
65835;SDS011;52595;51.608;7.216;2023-03-14T11:14:54;1.65;;;1.10;;
65835;SDS011;52595;51.608;7.216;2023-03-14T11:23:35;4.60;;;1.40;;
65835;SDS011;52595;51.608;7.216;2023-03-14T11:28:50;2.30;;;1.00;;
65835;SDS011;52595;51.608;7.216;2023-03-14T11:31:27;0.98;;;0.90;;
65835;SDS011;52595;51.608;7.216;2023-03-14T11:39:08;2.15;;;0.98;;
65835;SDS011;52595;51.608;7.216;2023-03-14T11:41:43;1.27;;;0.90;;
65835;SDS011;52595;51.608;7.216;2023-03-14T11:52:34;2.72;;;1.10;;
65835;SDS011;52595;51.608;7.216;2023-03-14T11:55:05;1.40;;;1.00;;
65835;SDS011;52595;51.608;7.216;2023-03-14T11:57:36;2.92;;;1.25;;
65835;SDS011;52595;51.608;7.216;2023-03-14T12:00:17;1.10;;;1.00;;
65835;SDS011;52595;51.608;7.216;2023-03-14T12:02:51;1.65;;;1.10;;
65835;SDS011;52595;51.608;7.216;2023-03-14T12:05:39;1.92;;;1.13;;
65835;SDS011;52595;51.608;7.216;2023-03-14T12:14:19;7.25;;;2.63;;
65835;SDS011;52595;51.608;7.216;2023-03-14T12:16:47;2.25;;;1.23;;
65835;SDS011;52595;51.608;7.216;2023-03-14T12:19:34;13.38;;;4.85;;
65835;SDS011;52595;51.608;7.216;2023-03-14T12:22:27;2.08;;;1.20;;
65835;SDS011;52595;51.608;7.216;2023-03-14T12:24:53;3.58;;;1.25;;
65835;SDS011;52595;51.608;7.216;2023-03-14T12:27:41;4.22;;;1.50;;
65835;SDS011;52595;51.608;7.216;2023-03-14T12:30:28;4.00;;;1.45;;
65835;SDS011;52595;51.608;7.216;2023-03-14T12:35:44;5.97;;;1.60;;
65835;SDS011;52595;51.608;7.216;2023-03-14T12:38:58;6.70;;;1.40;;
65835;SDS011;52595;51.608;7.216;2023-03-14T12:43:54;4.03;;;1.17;;
65835;SDS011;52595;51.608;7.216;2023-03-14T12:48:48;6.75;;;1.35;;
65835;SDS011;52595;51.608;7.216;2023-03-14T12:51:20;7.95;;;1.27;;
65835;SDS011;52595;51.608;7.216;2023-03-14T12:56:40;3.90;;;1.50;;
65835;SDS011;52595;51.608;7.216;2023-03-14T13:02:02;10.48;;;2.47;;
65835;SDS011;52595;51.608;7.216;2023-03-14T13:04:44;3.97;;;1.70;;
65835;SDS011;52595;51.608;7.216;2023-03-14T13:09:51;11.45;;;1.83;;
65835;SDS011;52595;51.608;7.216;2023-03-14T13:12:22;7.85;;;1.65;;
65835;SDS011;52595;51.608;7.216;2023-03-14T13:14:52;8.27;;;1.48;;
65835;SDS011;52595;51.608;7.216;2023-03-14T13:17:26;10.43;;;2.53;;
65835;SDS011;52595;51.608;7.216;2023-03-14T13:19:56;6.38;;;1.63;;
65835;SDS011;52595;51.608;7.216;2023-03-14T13:22:26;10.05;;;1.80;;
65835;SDS011;52595;51.608;7.216;2023-03-14T13:25:05;9.30;;;1.50;;
65835;SDS011;52595;51.608;7.216;2023-03-14T13:27:33;4.68;;;1.15;;
65835;SDS011;52595;51.608;7.216;2023-03-14T13:30:04;8.95;;;2.00;;
65835;SDS011;52595;51.608;7.216;2023-03-14T13:32:52;11.32;;;2.08;;
65835;SDS011;52595;51.608;7.216;2023-03-14T13:35:29;17.40;;;2.38;;
65835;SDS011;52595;51.608;7.216;2023-03-14T13:38:02;12.57;;;2.10;;
65835;SDS011;52595;51.608;7.216;2023-03-14T13:40:31;13.63;;;2.33;;
65835;SDS011;52595;51.608;7.216;2023-03-14T13:43:12;11.85;;;2.05;;
65835;SDS011;52595;51.608;7.216;2023-03-14T13:45:45;10.30;;;2.22;;
65835;SDS011;52595;51.608;7.216;2023-03-14T13:48:21;14.02;;;2.88;;
65835;SDS011;52595;51.608;7.216;2023-03-14T13:50:54;12.55;;;2.22;;
65835;SDS011;52595;51.608;7.216;2023-03-14T13:53:23;19.40;;;3.72;;
65835;SDS011;52595;51.608;7.216;2023-03-14T13:55:49;15.73;;;2.83;;
65835;SDS011;52595;51.608;7.216;2023-03-14T13:58:20;11.13;;;2.55;;
65835;SDS011;52595;51.608;7.216;2023-03-14T14:03:19;9.38;;;2.08;;
65835;SDS011;52595;51.608;7.216;2023-03-14T14:05:45;17.73;;;2.83;;
65835;SDS011;52595;51.608;7.216;2023-03-14T14:08:11;16.65;;;2.40;;
65835;SDS011;52595;51.608;7.216;2023-03-14T14:10:37;10.05;;;1.90;;
65835;SDS011;52595;51.608;7.216;2023-03-14T14:13:03;5.15;;;1.52;;
65835;SDS011;52595;51.608;7.216;2023-03-14T14:15:34;14.30;;;2.10;;
65835;SDS011;52595;51.608;7.216;2023-03-14T14:18:04;15.45;;;2.30;;
65835;SDS011;52595;51.608;7.216;2023-03-14T14:20:34;8.95;;;1.83;;
65835;SDS011;52595;51.608;7.216;2023-03-14T14:23:03;8.35;;;1.65;;
65835;SDS011;52595;51.608;7.216;2023-03-14T14:25:30;11.50;;;2.05;;
65835;SDS011;52595;51.608;7.216;2023-03-14T14:27:56;8.65;;;1.92;;
65835;SDS011;52595;51.608;7.216;2023-03-14T14:32:52;9.40;;;1.85;;
65835;SDS011;52595;51.608;7.216;2023-03-14T14:35:34;9.10;;;1.73;;
65835;SDS011;52595;51.608;7.216;2023-03-14T14:38:00;9.40;;;1.80;;
65835;SDS011;52595;51.608;7.216;2023-03-14T14:40:27;7.70;;;1.90;;
65835;SDS011;52595;51.608;7.216;2023-03-14T14:42:54;9.43;;;1.88;;
65835;SDS011;52595;51.608;7.216;2023-03-14T14:45:26;6.43;;;1.52;;
65835;SDS011;52595;51.608;7.216;2023-03-14T14:50:28;6.35;;;1.50;;
65835;SDS011;52595;51.608;7.216;2023-03-14T14:52:59;6.38;;;1.75;;
65835;SDS011;52595;51.608;7.216;2023-03-14T14:55:42;4.03;;;1.25;;
65835;SDS011;52595;51.608;7.216;2023-03-14T14:58:17;10.02;;;1.70;;
65835;SDS011;52595;51.608;7.216;2023-03-14T15:00:55;6.68;;;1.80;;
65835;SDS011;52595;51.608;7.216;2023-03-14T15:03:25;6.72;;;1.27;;
65835;SDS011;52595;51.608;7.216;2023-03-14T15:05:52;7.40;;;1.58;;
65835;SDS011;52595;51.608;7.216;2023-03-14T15:08:20;8.25;;;1.58;;
65835;SDS011;52595;51.608;7.216;2023-03-14T15:10:46;4.90;;;1.60;;
65835;SDS011;52595;51.608;7.216;2023-03-14T15:13:11;7.43;;;1.50;;
65835;SDS011;52595;51.608;7.216;2023-03-14T15:15:36;7.03;;;1.58;;
65835;SDS011;52595;51.608;7.216;2023-03-14T15:18:04;7.18;;;1.40;;
65835;SDS011;52595;51.608;7.216;2023-03-14T15:20:38;5.85;;;1.48;;
65835;SDS011;52595;51.608;7.216;2023-03-14T15:23:07;7.65;;;1.45;;
65835;SDS011;52595;51.608;7.216;2023-03-14T15:25:35;6.70;;;1.40;;
65835;SDS011;52595;51.608;7.216;2023-03-14T15:28:01;6.47;;;1.42;;
65835;SDS011;52595;51.608;7.216;2023-03-14T15:30:27;4.90;;;1.80;;
65835;SDS011;52595;51.608;7.216;2023-03-14T15:32:52;3.58;;;1.08;;
65835;SDS011;52595;51.608;7.216;2023-03-14T15:35:17;5.68;;;1.25;;
65835;SDS011;52595;51.608;7.216;2023-03-14T15:37:43;3.50;;;1.20;;
65835;SDS011;52595;51.608;7.216;2023-03-14T15:40:09;4.28;;;1.25;;
65835;SDS011;52595;51.608;7.216;2023-03-14T15:42:39;7.47;;;1.63;;
65835;SDS011;52595;51.608;7.216;2023-03-14T15:45:05;8.48;;;1.70;;
65835;SDS011;52595;51.608;7.216;2023-03-14T15:47:31;4.60;;;1.45;;
65835;SDS011;52595;51.608;7.216;2023-03-14T15:49:57;5.57;;;1.80;;
65835;SDS011;52595;51.608;7.216;2023-03-14T15:52:22;6.13;;;1.42;;
65835;SDS011;52595;51.608;7.216;2023-03-14T15:54:48;8.00;;;1.02;;
65835;SDS011;52595;51.608;7.216;2023-03-14T15:57:13;2.75;;;0.80;;
65835;SDS011;52595;51.608;7.216;2023-03-14T15:59:38;7.47;;;1.15;;
65835;SDS011;52595;51.608;7.216;2023-03-14T16:02:04;2.63;;;1.20;;
65835;SDS011;52595;51.608;7.216;2023-03-14T16:04:30;3.55;;;1.00;;
65835;SDS011;52595;51.608;7.216;2023-03-14T16:06:55;5.10;;;1.10;;
65835;SDS011;52595;51.608;7.216;2023-03-14T16:09:20;2.97;;;0.88;;
65835;SDS011;52595;51.608;7.216;2023-03-14T16:11:48;6.53;;;1.30;;